Sainte-Adèle, Québec

2:01 PM EST on February 08, 2016 (GMT -0500)
Glend Wexford | | Change Station
CLOSE
Current Station
Personal Weather Station
Location: Sainte-Adèle, QUéBEC
Elevation: 300 ft
Nearby Weather Stations

Elev 300 ft 45.99 °N, 74.12 °W | Updated 4 minutes ago

Overcast
Overcast
21.4 °F
Feels Like 21 °F
N
0.0
Wind Variable Wind from North
Gusts 0.0 mph

Today is forecast to be nearly the same temperature as yesterday.

Today
High -- | Low -- °F
--% Chance of Precip.
Yesterday
High -- | Low -- °F
Precip. -- in
Pressure 29.96 in
Visibility 45.0 miles
Clouds Few 5000 ft
Overcast 13000 ft
Windchill 21 °F
Dew Point -9 °F
Humidity 25%
Rainfall 0.00 in
Snow Depth Not available.
7:10 AM 5:11 PM
New Moon, 0% visible
METAR CYMX 081800Z 05009G19KT 020V090 45SM FEW050 OVC130 M08/M16 A2993 RMK SC1AC8 SC TR SLP144
Pressure 29.96 in
Visibility 45.0 miles
Clouds Few 5000 ft
Overcast 13000 ft
Windchill 21 °F
Dew Point -9 °F
Humidity 25%
Rainfall 0.00 in
Snow Depth Not available.
7:10 AM 5:11 PM
New Moon, 0% visible
METAR CYMX 081800Z 05009G19KT 020V090 45SM FEW050 OVC130 M08/M16 A2993 RMK SC1AC8 SC TR SLP144

10-Day Weather Forecast

Almanac

Astronomy

Feb. 08, 2016 Rise Set
Actual Time
Civil Twilight
Nautical Twilight
Astronomical Twilight
Moon
Length of Visible Light
Length of Day
Tomorrow will be .
, % of the Moon is Illuminated

Today's Extremes

Country Highs Country Lows

Community

WunderPhotos

Upload Photos

1,891,485 photos uploaded!

WunderBlog® & News

Nearby

Air Quality

  Air Quality AQ Index Pollutant
Not available.

Snow Depth

Station Depth Elevation

Earthquake Activity

City Distance Mag. Time & Date
Minimum magnitude displayed is 2.5.

Coastal Water Temperatures

Place Temperature

Stations

Nearby Weather Stations

Station Location Temp. Windchill Dew Point Humidity Wind Precip. Elev Updated Type
                   

Watches & Warnings

There are currently no watches in effect.